Time;durP1;ratioP1;P1;durP2;ratioP2;P2;SDS_P1;SDS_P2;PMS_P1;PMS_P2;Temp;Humidity;BMP_temperature;BMP_pressure;BME280_temperature;BME280_humidity;BME280_pressure;Samples;Min_cycle;Max_cycle;Signal;HPM_P1;HPM_P2
2023/04/24 00:01:54;;;;;;;3.03;0.98;;;13.40;76.60;;;12.78;59.84;99039.47;5027892;28;20552;-89
2023/04/24 00:04:25;;;;;;;4.30;0.90;;;13.70;76.80;;;12.76;59.74;99041.63;5016493;28;20122;-89
2023/04/24 00:06:56;;;;;;;3.58;0.90;;;13.40;76.80;;;12.67;59.25;99037.81;5029018;28;20702;-89
2023/04/24 00:09:24;;;;;;;;;;;13.40;75.90;;;12.63;59.51;99037.53;5020609;28;20052;-88
2023/04/24 00:11:51;;;;;;;2.20;1.08;;;13.30;76.40;;;12.59;59.87;99030.28;5020217;28;20297;-89
2023/04/24 00:14:18;;;;;;;2.97;1.10;;;13.30;76.80;;;12.51;59.98;99034.28;5024087;28;20112;-90
2023/04/24 00:16:45;;;;;;;2.40;1.20;;;13.20;76.80;;;12.52;60.41;99035.06;5009399;28;20131;-89
2023/04/24 00:19:14;;;;;;;6.15;1.48;;;13.20;77.10;;;12.47;59.73;99035.06;5028021;28;20494;-88
2023/04/24 00:21:41;;;;;;;3.03;1.15;;;13.20;76.60;;;12.49;60.43;99033.75;5017381;28;20107;-88
2023/04/24 00:24:09;;;;;;;4.60;1.30;;;13.20;77.30;;;12.46;60.28;99036.91;5010860;28;20087;-90
2023/04/24 00:26:37;;;;;;;4.75;1.40;;;13.20;77.20;;;12.45;59.60;99039.88;4999902;28;20412;-90
2023/04/24 00:29:04;;;;;;;4.65;1.20;;;13.20;76.40;;;12.44;59.42;99028.34;5017706;28;20410;-90
2023/04/24 00:31:31;;;;;;;2.80;1.20;;;13.10;76.20;;;12.44;60.22;99024.84;5026651;28;20383;-91
2023/04/24 00:33:59;;;;;;;5.60;1.20;;;13.10;77.00;;;12.47;59.92;99019.00;5028471;28;20073;-88
2023/04/24 00:36:28;;;;;;;4.25;1.30;;;13.20;77.00;;;12.49;59.80;99031.06;5013479;28;20081;-89
2023/04/24 00:38:55;;;;;;;3.72;1.30;;;13.20;76.80;;;12.51;59.67;99044.16;5004795;28;20054;-88
2023/04/24 00:41:23;;;;;;;2.80;1.23;;;13.20;76.50;;;12.47;59.33;99032.38;5009160;28;20049;-90
2023/04/24 00:43:51;;;;;;;5.10;1.60;;;13.10;76.10;;;12.47;59.66;99048.41;5012256;28;20119;-88
2023/04/24 00:46:18;;;;;;;2.80;1.40;;;13.10;76.20;;;12.34;59.03;99038.97;5009057;28;20042;-88
2023/04/24 00:48:45;;;;;;;4.13;1.38;;;13.00;75.80;;;12.23;59.77;99030.09;5011528;28;20107;-88
2023/04/24 00:51:13;;;;;;;3.00;1.38;;;13.00;76.60;;;12.25;60.12;99029.81;5009551;28;20052;-89
2023/04/24 00:53:41;;;;;;;2.67;1.20;;;12.90;77.10;;;12.29;59.95;99030.91;5027755;28;20069;-89
2023/04/24 00:56:09;;;;;;;2.53;1.20;;;13.00;76.80;;;12.34;60.15;99039.78;5024789;28;20392;-89
2023/04/24 00:58:36;;;;;;;2.75;1.25;;;13.00;77.10;;;12.37;59.23;99027.78;5012732;28;20053;-90
2023/04/24 01:01:06;;;;;;;2.78;1.42;;;13.00;75.80;;;12.32;59.21;99039.25;5017873;28;20190;-93
2023/04/24 01:03:36;;;;;;;3.50;1.35;;;13.00;76.20;;;12.31;59.66;99040.31;5026688;28;20073;-89
2023/04/24 01:06:05;;;;;;;3.03;1.40;;;13.00;76.70;;;12.32;59.77;99039.25;5010785;28;20133;-90
2023/04/24 01:08:33;;;;;;;6.78;1.70;;;13.00;76.80;;;12.33;59.52;99034.69;5015076;28;20123;-90
2023/04/24 01:11:05;;;;;;;3.85;1.63;;;13.00;76.70;;;12.33;59.87;99038.16;5005625;28;20136;-90
2023/04/24 01:13:33;;;;;;;4.63;1.85;;;13.00;76.80;;;12.28;59.45;99035.47;5017422;28;20053;-89
2023/04/24 01:16:01;;;;;;;4.57;1.67;;;13.00;76.40;;;12.31;59.59;99045.66;5024223;28;20056;-88
2023/04/24 01:18:29;;;;;;;3.38;1.88;;;13.00;76.60;;;12.31;59.38;99052.88;5013432;28;20764;-90
2023/04/24 01:21:00;;;;;;;4.22;2.05;;;12.90;76.40;;;12.29;59.50;99045.09;5025019;28;20049;-89
2023/04/24 01:23:28;;;;;;;4.05;1.80;;;12.90;76.60;;;12.19;59.65;99047.69;5028094;28;20147;-90
2023/04/24 01:25:56;;;;;;;5.45;2.58;;;12.90;76.90;;;12.18;59.89;99035.41;4991093;28;20042;-89
2023/04/24 01:28:26;;;;;;;4.57;2.13;;;12.90;77.00;;;12.17;59.78;99041.00;4998914;28;20053;-89
2023/04/24 01:30:54;;;;;;;5.70;2.50;;;12.80;76.90;;;12.17;59.92;99038.34;5026925;28;20042;-88
2023/04/24 01:33:24;;;;;;;5.68;2.40;;;12.80;77.00;;;12.14;59.60;99050.34;5016053;28;20111;-88
2023/04/24 01:35:52;;;;;;;4.93;2.88;;;12.80;76.80;;;12.08;59.71;99048.69;5008591;28;20108;-90
2023/04/24 01:38:19;;;;;;;6.90;3.20;;;12.70;76.80;;;11.88;60.21;99049.34;5009600;28;20160;-88
2023/04/24 01:40:48;;;;;;;5.72;3.00;;;12.60;77.30;;;11.92;60.51;99053.13;5014440;28;20103;-89
2023/04/24 01:43:15;;;;;;;9.93;3.25;;;12.60;77.40;;;11.91;60.23;99050.69;5050055;28;20103;-90
2023/04/24 01:45:43;;;;;;;5.72;3.03;;;12.60;77.40;;;11.94;60.58;99055.53;5044356;28;20060;-89
2023/04/24 01:48:10;;;;;;;5.20;3.20;;;12.60;77.80;;;11.96;60.51;99050.75;5041178;28;20033;-89
2023/04/24 01:50:37;;;;;;;4.78;2.97;;;12.60;77.60;;;11.92;60.39;99060.31;5048797;28;20045;-89
2023/04/24 01:53:05;;;;;;;8.20;2.92;;;12.60;77.50;;;11.85;60.56;99057.84;5047171;28;20044;-89
2023/04/24 01:55:33;;;;;;;7.97;3.20;;;12.50;77.80;;;11.87;60.35;99049.59;5043873;28;20115;-91
2023/04/24 01:58:02;;;;;;;5.88;3.60;;;12.50;77.60;;;11.77;60.35;99059.09;5048325;28;20056;-90
2023/04/24 02:00:29;;;;;;;5.90;3.15;;;12.50;77.60;;;11.69;60.50;99054.22;5057008;28;20045;-90
2023/04/24 02:02:56;;;;;;;6.53;3.72;;;12.40;77.80;;;11.71;60.59;99049.44;5056458;28;20045;-90
2023/04/24 02:05:26;;;;;;;6.03;3.38;;;12.40;77.80;;;11.71;60.53;99052.13;5065384;28;20052;-90
2023/04/24 02:07:53;;;;;;;7.53;3.47;;;12.40;77.80;;;11.74;60.58;99058.78;5049182;28;20646;-89
2023/04/24 02:10:20;;;;;;;6.70;4.45;;;12.40;77.80;;;11.73;60.19;99058.00;5045989;28;20045;-93
2023/04/24 02:12:47;;;;;;;10.20;5.35;;;12.40;77.50;;;11.70;59.94;99057.69;5042214;28;20132;-90
2023/04/24 02:15:17;;;;;;;9.15;5.95;;;12.30;77.20;;;11.55;60.79;99061.81;5044673;28;20425;-89
2023/04/24 02:17:44;;;;;;;10.10;5.70;;;12.20;77.90;;;11.49;60.85;99059.38;5046050;28;20128;-89
2023/04/24 02:20:12;;;;;;;10.32;5.15;;;12.20;78.20;;;11.44;61.40;99068.13;5056940;28;20474;-89
2023/04/24 02:22:39;;;;;;;9.73;5.60;;;12.10;78.70;;;11.44;61.34;99068.13;5043997;28;20052;-89
2023/04/24 02:25:08;;;;;;;12.75;6.05;;;12.10;78.70;;;11.44;61.16;99062.78;5041822;28;20055;-88
2023/04/24 02:27:35;;;;;;;11.20;5.97;;;12.10;78.60;;;11.48;61.24;99065.78;5047143;28;20095;-91
2023/04/24 02:30:08;;;;;;;11.43;6.60;;;12.10;78.70;;;11.53;61.15;99061.28;5048267;28;20053;-88
2023/04/24 02:32:36;;;;;;;10.05;6.15;;;12.20;78.40;;;11.45;61.35;99063.59;5042639;28;20382;-89
2023/04/24 02:35:04;;;;;;;10.02;6.55;;;12.10;78.70;;;11.45;61.52;99064.41;5050530;28;20455;-91
2023/04/24 02:37:31;;;;;;;10.90;6.53;;;12.10;78.90;;;11.44;61.15;99054.78;5049682;28;20438;-91
2023/04/24 02:39:58;;;;;;;14.43;6.93;;;12.10;78.50;;;11.43;61.56;99061.19;5054872;28;20048;-89
2023/04/24 02:42:25;;;;;;;13.98;7.53;;;12.10;78.90;;;11.44;61.52;99061.97;5053848;28;20068;-89
2023/04/24 02:44:52;;;;;;;13.50;7.68;;;12.10;78.90;;;11.49;61.51;99057.50;5029210;28;20049;-89
2023/04/24 02:47:20;;;;;;;12.93;7.47;;;12.10;78.90;;;11.46;61.71;99063.31;5042638;28;20057;-88
2023/04/24 02:49:48;;;;;;;12.40;7.53;;;12.10;79.00;;;11.47;61.61;99067.63;5035924;28;20577;-87
2023/04/24 02:52:16;;;;;;;16.58;8.20;;;12.10;79.20;;;11.46;61.80;99076.69;5034180;28;20076;-88
2023/04/24 02:54:44;;;;;;;16.00;8.15;;;12.10;79.20;;;11.51;61.48;99074.06;5032532;28;20074;-89
2023/04/24 02:57:11;;;;;;;16.15;8.23;;;12.10;79.00;;;11.52;61.74;99074.88;5037097;28;20051;-91
2023/04/24 02:59:41;;;;;;;13.05;8.50;;;12.10;79.20;;;11.53;61.42;99077.31;5025612;28;20049;-90
2023/04/24 03:02:08;;;;;;;15.23;8.90;;;12.20;78.80;;;11.53;61.86;99081.84;5028206;28;20053;-89
2023/04/24 03:04:36;;;;;;;14.38;9.00;;;12.20;79.10;;;11.58;62.00;99085.38;5038498;28;20032;-93
2023/04/24 03:07:05;;;;;;;16.00;8.80;;;12.20;79.20;;;11.62;62.04;99091.00;5049517;28;20108;-88
2023/04/24 03:09:32;;;;;;;16.88;8.73;;;12.30;79.40;;;11.64;62.13;99086.22;5013000;28;20058;-89
2023/04/24 03:12:00;;;;;;;14.85;9.88;;;12.30;79.40;;;11.64;61.45;99088.88;5026764;28;20061;-89
2023/04/24 03:14:27;;;;;;;16.92;9.70;;;12.20;79.00;;;11.62;61.88;99088.34;5062628;28;20103;-91
2023/04/24 03:16:54;;;;;;;18.35;9.77;;;12.20;79.20;;;11.64;62.04;99086.22;5050924;28;20044;-89
2023/04/24 03:19:21;;;;;;;17.00;8.77;;;12.30;79.40;;;11.67;61.87;99087.59;5049583;28;20041;-89
2023/04/24 03:21:59;;;;;;;17.35;9.27;;;12.30;79.10;;;11.68;61.93;99083.84;5030742;28;20061;-89
2023/04/24 03:24:28;;;;;;;18.00;9.73;;;12.30;79.40;;;11.70;61.90;99092.41;5035530;28;20425;-88
2023/04/24 03:26:56;;;;;;;16.30;10.15;;;12.30;79.20;;;11.65;61.50;99090.50;5022213;28;20536;-90
2023/04/24 03:29:43;;;;;;;17.25;10.68;;;12.30;79.00;;;11.60;61.60;99093.09;5031243;28;20064;-91
2023/04/24 03:32:11;;;;;;;16.05;9.77;;;12.20;78.80;;;11.59;61.86;99094.97;5023669;28;20069;-88
2023/04/24 03:34:39;;;;;;;18.33;9.73;;;12.30;79.30;;;11.62;61.77;99106.22;5052771;28;20618;-91
2023/04/24 03:37:08;;;;;;;18.02;10.43;;;12.40;79.10;;;11.63;61.69;99092.63;5029433;28;20037;-91
2023/04/24 03:39:38;;;;;;;15.63;9.05;;;12.30;79.00;;;11.68;62.08;99098.00;5038652;28;20048;-90
2023/04/24 03:42:05;;;;;;;21.05;10.55;;;12.30;79.40;;;11.60;61.52;99093.09;5036229;28;20607;-89
2023/04/24 03:44:44;;;;;;;20.02;10.10;;;12.20;78.90;;;11.51;62.01;99094.63;5010466;28;20045;-89
2023/04/24 03:47:11;;;;;;;17.95;10.82;;;12.10;79.50;;;11.48;62.18;99095.94;4994260;28;20050;-90
2023/04/24 03:49:39;;;;;;;18.85;10.13;;;12.10;79.60;;;11.46;62.40;99091.91;5003102;28;20084;-89
2023/04/24 03:52:06;;;;;;;15.73;9.65;;;12.10;79.90;;;11.52;62.63;99097.06;5001285;28;20069;-89
2023/04/24 03:54:33;;;;;;;15.80;9.25;;;12.20;80.00;;;11.53;62.21;99098.66;5023750;28;20080;-88
2023/04/24 03:57:03;;;;;;;17.85;9.95;;;12.20;79.50;;;11.51;62.25;99105.28;5007033;28;20048;-88
2023/04/24 03:59:32;;;;;;;15.45;8.85;;;12.10;79.60;;;11.56;62.33;99102.69;5010708;28;20429;-89
2023/04/24 04:02:11;;;;;;;17.98;10.18;;;12.20;79.70;;;11.61;62.26;99094.72;5023930;28;20049;-89
2023/04/24 04:04:38;;;;;;;20.15;10.27;;;12.20;79.60;;;11.57;61.96;99096.31;5023605;28;20049;-88
2023/04/24 04:07:07;;;;;;;14.77;8.95;;;12.20;79.30;;;11.59;62.20;99092.31;5028484;28;20048;-89
2023/04/24 04:09:35;;;;;;;18.02;9.82;;;12.30;79.60;;;11.63;61.94;99097.16;5005022;28;20045;-89
2023/04/24 04:12:03;;;;;;;19.35;9.88;;;12.30;79.30;;;11.65;61.98;99090.50;5010093;28;20073;-92
2023/04/24 04:14:32;;;;;;;19.85;9.82;;;12.30;79.20;;;11.66;61.63;99089.44;5010619;28;20043;-92
2023/04/24 04:17:00;;;;;;;18.15;9.88;;;12.30;79.00;;;11.68;61.78;99097.22;5001732;28;20050;-92
2023/04/24 04:19:27;;;;;;;16.98;9.75;;;12.30;78.90;;;11.67;61.70;99099.06;5026842;28;20584;-92
2023/04/24 04:21:56;;;;;;;16.60;9.55;;;12.30;79.10;;;11.64;61.76;99101.44;5014079;28;20057;-91
2023/04/24 04:24:37;;;;;;;19.27;10.00;;;12.30;79.10;;;11.62;61.95;99101.69;5009630;28;20053;-91
2023/04/24 04:27:07;;;;;;;19.85;9.50;;;12.30;79.20;;;11.60;61.99;99109.13;5004184;28;20041;-89
2023/04/24 04:29:43;;;;;;;16.58;9.23;;;12.30;79.30;;;11.59;62.14;99105.66;5004876;28;20204;-90
2023/04/24 04:32:12;;;;;;;18.55;9.65;;;12.30;79.40;;;11.61;61.58;99105.41;5019162;28;20053;-89
2023/04/24 04:34:39;;;;;;;15.90;9.15;;;12.30;78.90;;;11.60;61.92;99109.13;5018051;28;20050;-89
2023/04/24 04:37:10;;;;;;;17.55;10.02;;;12.30;79.20;;;11.62;61.52;99108.91;5009381;28;20045;-89
2023/04/24 04:39:45;;;;;;;17.40;9.70;;;12.20;78.70;;;11.60;61.96;99109.13;4993418;28;20045;-91
2023/04/24 04:42:19;;;;;;;18.52;9.38;;;12.20;79.10;;;11.62;61.13;99111.56;5061549;22;20057;-81
2023/04/24 04:44:47;;;;;;;15.30;9.02;;;12.30;78.40;;;11.55;61.89;99104.53;5063679;28;20421;-82
2023/04/24 04:47:22;;;;;;;12.80;9.05;;;12.20;79.20;;;11.52;61.63;99106.94;5044228;28;20051;-84
2023/04/24 04:49:51;;;;;;;17.02;9.75;;;12.20;79.00;;;11.54;61.41;99105.59;5045303;28;20061;-83
2023/04/24 04:52:24;;;;;;;17.60;10.15;;;12.20;78.60;;;11.51;61.93;99108.78;5038065;28;20527;-83
2023/04/24 04:54:56;;;;;;;14.95;8.95;;;12.20;79.00;;;11.49;61.50;99110.91;5060946;28;20398;-83
2023/04/24 04:57:30;;;;;;;16.38;9.10;;;12.30;78.90;;;11.43;61.66;99111.91;5041425;28;20568;-84
2023/04/24 04:59:57;;;;;;;13.95;8.75;;;12.10;78.80;;;11.49;61.64;99105.56;5055416;28;20040;-84
2023/04/24 05:02:37;;;;;;;16.13;9.20;;;12.20;78.80;;;11.46;61.41;99111.38;5040514;28;20041;-84
2023/04/24 05:05:07;;;;;;;17.25;8.82;;;12.10;78.70;;;11.49;61.77;99118.09;5043014;28;20079;-82
2023/04/24 05:07:34;;;;;;;13.68;8.32;;;12.20;79.20;;;11.49;61.89;99112.75;5039277;28;20045;-81
2023/04/24 05:10:01;;;;;;;15.18;9.15;;;12.20;79.10;;;11.46;61.78;99110.56;5043134;28;20415;-81
2023/04/24 05:12:30;;;;;;;14.27;8.77;;;12.10;79.10;;;11.49;61.46;99118.91;5047495;28;20053;-82
2023/04/24 05:14:58;;;;;;;14.55;8.60;;;12.10;78.80;;;11.45;61.51;99123.13;5049489;28;20064;-80
2023/04/24 05:17:26;;;;;;;14.23;8.55;;;12.10;78.60;;;11.38;61.33;99117.19;5049933;28;20135;-80
2023/04/24 05:19:56;;;;;;;12.90;7.50;;;12.10;78.90;;;11.32;61.88;99126.16;5049132;28;20049;-82
2023/04/24 05:22:23;;;;;;;19.08;8.60;;;12.00;79.40;;;11.34;62.35;99130.22;5040014;28;20048;-81
2023/04/24 05:24:53;;;;;;;17.13;8.85;;;12.00;79.60;;;11.38;62.25;99132.41;5046868;28;20049;-80
2023/04/24 05:27:42;;;;;;;14.65;8.10;;;12.00;79.70;;;11.33;62.52;99131.28;5043325;28;20513;-80
2023/04/24 05:30:15;;;;;;;14.98;8.23;;;12.00;79.80;;;11.39;62.59;99137.47;5049922;28;20048;-81
2023/04/24 05:32:42;;;;;;;14.88;8.05;;;12.10;80.00;;;11.40;63.03;99125.75;5058298;28;20049;-81
2023/04/24 05:35:10;;;;;;;14.20;8.80;;;12.00;80.40;;;11.37;63.47;99141.44;5037248;28;20104;-81
2023/04/24 05:37:37;;;;;;;14.57;9.00;;;12.00;80.80;;;11.36;64.08;99140.63;5043097;28;20056;-79
2023/04/24 05:40:06;;;;;;;14.15;8.30;;;12.00;81.60;;;11.20;64.37;99147.66;5045754;28;20060;-83
2023/04/24 05:42:33;;;;;;;11.93;8.68;;;11.90;81.70;;;11.20;64.67;99142.31;5046028;28;20567;-80
2023/04/24 05:45:02;;;;;;;12.07;8.07;;;11.90;82.10;;;11.24;64.89;99143.44;5047079;28;20088;-82
2023/04/24 05:47:29;;;;;;;16.33;8.95;;;11.90;82.20;;;11.29;65.09;99140.84;5048973;28;20041;-81
2023/04/24 05:49:57;;;;;;;13.38;8.50;;;12.00;82.50;;;11.33;65.11;99146.50;5050244;28;20048;-81
2023/04/24 05:52:24;;;;;;;12.25;8.40;;;12.00;82.30;;;11.35;65.07;99145.16;5049004;28;20148;-81
2023/04/24 05:54:52;;;;;;;13.68;8.27;;;12.00;82.50;;;11.34;65.32;99148.09;5045169;28;20073;-80
2023/04/24 05:57:23;;;;;;;16.42;9.07;;;12.00;82.60;;;11.29;65.45;99150.72;5038202;28;20500;-79
2023/04/24 05:59:57;;;;;;;12.73;8.05;;;11.90;82.80;;;11.25;65.41;99147.72;5048970;28;20048;-83
2023/04/24 06:02:32;;;;;;;16.33;8.98;;;11.90;82.60;;;11.29;65.55;99142.69;5049919;28;20606;-78
2023/04/24 06:05:00;;;;;;;11.52;8.43;;;11.90;82.90;;;11.19;65.38;99146.03;5048802;28;20555;-79
2023/04/24 06:07:27;;;;;;;16.50;8.73;;;11.90;82.90;;;11.13;65.27;99140.91;5039276;28;20520;-80
2023/04/24 06:09:55;;;;;;;14.07;9.00;;;11.80;83.00;;;11.06;66.03;99147.22;5047359;28;20136;-81
2023/04/24 06:12:23;;;;;;;12.90;8.32;;;11.80;83.40;;;11.07;65.83;99143.47;5046300;28;20037;-81
2023/04/24 06:14:57;;;;;;;24.27;9.00;;;11.80;83.30;;;11.04;65.82;99145.84;5063908;28;20055;-80
2023/04/24 06:17:45;;;;;;;15.70;7.70;;;11.70;83.30;;;10.99;65.90;99149.25;5040176;28;20060;-81
2023/04/24 06:20:15;;;;;;;13.77;8.60;;;11.70;83.40;;;10.97;66.31;99142.53;5066841;28;20055;-81
2023/04/24 06:22:42;;;;;;;10.73;7.35;;;11.70;83.80;;;10.98;66.68;99149.47;5049463;28;20077;-80
2023/04/24 06:25:11;;;;;;;13.35;7.43;;;11.70;84.20;;;11.01;66.78;99154.34;5048390;28;20052;-81
2023/04/24 06:27:38;;;;;;;11.73;7.88;;;11.60;84.10;;;11.02;66.69;99150.59;5046281;28;20033;-83
2023/04/24 06:30:07;;;;;;;10.88;7.75;;;11.70;84.00;;;11.03;66.86;99147.72;5045354;28;20106;-81
2023/04/24 06:32:34;;;;;;;11.27;7.45;;;11.70;84.40;;;11.04;67.18;99162.66;5029783;28;20080;-80
2023/04/24 06:35:03;;;;;;;13.40;7.55;;;11.70;84.60;;;11.07;67.32;99158.69;5038898;28;20148;-78
2023/04/24 06:37:32;;;;;;;11.57;7.13;;;11.70;84.70;;;11.04;67.81;99143.19;5046703;28;20079;-77
2023/04/24 06:39:59;;;;;;;12.10;7.63;;;11.70;85.00;;;10.87;68.69;99143.22;5065772;28;20140;-79
2023/04/24 06:42:26;;;;;;;11.43;7.25;;;11.60;86.30;;;10.78;68.95;99144.69;5040458;28;20045;-78
2023/04/24 06:44:53;;;;;;;14.52;8.40;;;11.50;86.30;;;10.83;69.71;99148.25;5047000;28;20124;-79
2023/04/24 06:47:20;;;;;;;11.65;7.05;;;11.50;87.10;;;10.85;69.94;99147.19;5049959;28;20068;-78
2023/04/24 06:49:48;;;;;;;10.50;7.47;;;11.50;87.20;;;10.90;70.37;99145.41;5051689;28;20049;-77
2023/04/24 06:52:16;;;;;;;10.07;6.90;;;11.50;87.60;;;10.94;70.36;99143.06;5057196;28;20059;-78
2023/04/24 06:54:43;;;;;;;12.65;7.20;;;11.60;87.50;;;10.90;69.83;99132.06;5059903;28;20045;-79
2023/04/24 06:57:11;;;;;;;15.07;8.10;;;11.60;86.90;;;10.91;69.72;99138.19;5048224;28;20144;-77
2023/04/24 06:59:38;;;;;;;13.25;7.63;;;11.60;86.80;;;10.86;69.75;99141.59;5042335;28;20045;-77
2023/04/24 07:02:06;;;;;;;11.90;7.30;;;11.50;87.10;;;10.87;70.27;99137.88;5038862;28;20670;-78
2023/04/24 07:04:33;;;;;;;11.38;6.40;;;11.60;87.20;;;10.91;69.91;99138.19;5039026;28;20068;-79
2023/04/24 07:07:00;;;;;;;11.45;6.20;;;11.60;87.00;;;10.86;69.80;99132.78;5048684;28;20549;-79
2023/04/24 07:09:29;;;;;;;11.82;6.68;;;11.50;86.90;;;10.85;70.05;99128.53;5050629;28;20053;-78
2023/04/24 07:11:57;;;;;;;8.45;5.82;;;11.50;87.10;;;10.85;69.76;99137.31;5048055;28;20048;-78
2023/04/24 07:14:24;;;;;;;8.93;5.70;;;11.50;86.70;;;10.88;69.47;99138.69;5050155;28;20436;-79
2023/04/24 07:16:51;;;;;;;7.57;5.00;;;11.60;86.60;;;10.95;69.84;99147.31;5043883;28;20059;-79
2023/04/24 07:19:18;;;;;;;10.05;5.53;;;11.60;87.00;;;11.01;69.95;99139.13;5041920;28;20501;-78
2023/04/24 07:21:45;;;;;;;12.80;5.50;;;11.60;87.00;;;11.04;70.05;99146.66;5047332;28;20120;-81
2023/04/24 07:24:12;;;;;;;8.20;4.70;;;11.70;87.10;;;10.98;69.27;99142.31;5050082;28;20127;-75
2023/04/24 07:26:41;;;;;;;7.47;4.70;;;11.70;86.50;;;10.85;69.88;99141.84;5045322;28;20119;-75
2023/04/24 07:29:09;;;;;;;7.07;4.40;;;11.60;87.30;;;10.85;70.78;99149.84;5033004;28;20195;-78
2023/04/24 07:31:36;;;;;;;6.18;3.83;;;11.50;87.90;;;10.87;70.70;99147.75;5042585;28;20147;-77
2023/04/24 07:34:04;;;;;;;6.88;3.97;;;11.60;87.80;;;10.87;70.82;99140.53;5050171;28;20064;-78
2023/04/24 07:36:32;;;;;;;6.40;3.70;;;11.60;87.70;;;10.94;70.46;99148.38;5051088;28;20099;-78
2023/04/24 07:38:59;;;;;;;9.02;3.95;;;11.60;87.40;;;10.79;70.27;99147.13;5051281;28;20571;-77
2023/04/24 07:41:27;;;;;;;4.90;3.03;;;11.50;87.30;;;10.77;70.92;99149.22;5042710;28;20509;-78
2023/04/24 07:43:56;;;;;;;4.60;3.20;;;11.50;87.90;;;10.83;71.67;99150.91;5035224;28;20115;-76
2023/04/24 07:46:24;;;;;;;5.13;2.85;;;11.50;88.40;;;10.77;71.22;99165.19;5027733;28;20122;-78
2023/04/24 07:48:52;;;;;;;4.32;2.50;;;11.60;88.10;;;10.82;71.16;99162.59;5028659;28;20120;-79
2023/04/24 07:51:19;;;;;;;4.72;2.13;;;11.50;87.90;;;10.82;70.76;99151.94;5033311;28;20116;-78
2023/04/24 07:53:46;;;;;;;3.95;1.50;;;11.50;87.80;;;10.82;69.66;99162.59;5025520;28;20048;-77
2023/04/24 07:56:14;;;;;;;3.95;1.70;;;11.50;86.90;;;10.73;70.05;99157.94;5048548;28;20041;-78
2023/04/24 07:58:41;;;;;;;2.22;0.98;;;11.40;87.30;;;10.80;70.95;99166.59;5047917;28;20126;-77
2023/04/24 08:01:09;;;;;;;2.33;1.02;;;11.40;88.20;;;10.75;71.10;99177.19;5041654;28;20041;-77
2023/04/24 08:03:37;;;;;;;2.72;0.90;;;11.40;88.30;;;10.75;70.49;99170.00;5032906;28;20056;-76
2023/04/24 08:06:04;;;;;;;3.35;1.08;;;11.40;87.70;;;10.68;70.96;99174.66;5027319;28;20056;-78
2023/04/24 08:08:32;;;;;;;2.67;1.00;;;11.30;88.30;;;10.58;70.26;99179.84;5021725;28;20041;-77
2023/04/24 08:10:59;;;;;;;1.95;0.98;;;11.30;87.80;;;10.50;70.78;99190.94;5023889;28;20049;-78
2023/04/24 08:13:27;;;;;;;2.33;0.85;;;11.20;88.10;;;10.50;71.58;99191.72;5035427;28;20076;-77
2023/04/24 08:15:54;;;;;;;2.90;0.95;;;11.20;88.60;;;10.60;71.56;99192.94;5040194;28;20036;-80
2023/04/24 08:18:23;;;;;;;1.45;0.70;;;11.30;88.60;;;10.57;70.64;99195.03;5020276;28;20734;-79
2023/04/24 08:20:50;;;;;;;1.92;0.90;;;11.30;87.70;;;10.58;70.39;99201.16;5024072;28;20107;-80
2023/04/24 08:23:17;;;;;;;2.40;1.00;;;11.30;87.90;;;10.46;70.38;99200.47;5033041;28;20052;-80
2023/04/24 08:25:45;;;;;;;3.65;1.08;;;11.20;87.60;;;10.39;69.96;99205.13;5032017;28;20115;-79
2023/04/24 08:28:12;;;;;;;3.60;1.17;;;11.10;87.20;;;10.38;70.44;99203.50;5047719;28;20501;-80
2023/04/24 08:30:39;;;;;;;3.25;0.90;;;11.10;87.90;;;10.27;70.49;99206.00;5045677;28;20409;-80
2023/04/24 08:33:06;;;;;;;2.08;0.90;;;11.00;87.80;;;10.24;71.36;99214.47;5029094;28;20045;-80
2023/04/24 08:35:35;;;;;;;2.83;1.15;;;10.90;88.60;;;10.28;71.45;99222.78;5029393;28;20049;-81
2023/04/24 08:38:02;;;;;;;2.03;0.90;;;11.00;88.60;;;10.32;71.42;99224.75;5022003;28;20037;-81
2023/04/24 08:40:32;;;;;;;2.53;1.02;;;11.00;88.30;;;10.32;71.36;99214.09;5023990;28;20045;-80
2023/04/24 08:43:00;;;;;;;7.13;1.20;;;11.00;88.40;;;10.34;71.62;99226.34;5036131;28;20116;-78
2023/04/24 08:45:28;;;;;;;2.58;1.10;;;11.00;88.50;;;10.37;71.45;99228.53;5047064;28;20051;-80
2023/04/24 08:47:55;;;;;;;5.00;1.50;;;11.10;88.50;;;10.30;71.43;99234.03;5039402;28;20049;-77
2023/04/24 08:50:23;;;;;;;5.30;1.60;;;11.00;88.40;;;10.34;71.79;99239.69;5045643;28;20123;-77
2023/04/24 08:52:53;;;;;;;3.05;1.67;;;11.00;88.70;;;10.38;72.44;99236.28;5034427;28;20037;-79
2023/04/24 08:55:21;;;;;;;4.40;2.03;;;11.10;89.40;;;10.32;72.80;99243.41;5045457;28;20049;-79
2023/04/24 08:57:53;;;;;;;4.45;1.85;;;11.00;89.60;;;10.26;72.91;99254.22;5057528;28;20074;-80
2023/04/24 09:00:21;;;;;;;4.47;1.90;;;11.00;90.00;;;10.19;73.89;99256.97;5063513;28;20048;-79
2023/04/24 09:02:51;;;;;;;3.13;1.70;;;10.90;90.40;;;10.24;74.27;99270.41;5042656;28;20053;-80
2023/04/24 09:05:19;;;;;;;5.93;2.05;;;10.90;90.80;;;10.25;74.69;99269.41;5047554;28;20120;-80
2023/04/24 09:07:50;;;;;;;5.53;1.83;;;11.00;91.00;;;10.27;75.20;99280.63;5041584;28;20428;-79
2023/04/24 09:10:19;;;;;;;5.60;1.90;;;11.00;91.50;;;10.34;76.22;99274.31;5047931;28;20129;-79
2023/04/24 09:12:47;;;;;;;4.05;1.77;;;11.00;92.40;;;10.38;76.16;99286.13;5039711;28;20509;-78
2023/04/24 09:15:15;;;;;;;6.07;1.58;;;11.00;92.20;;;10.36;76.44;99290.91;5042921;28;20044;-78
2023/04/24 09:17:42;;;;;;;2.85;1.58;;;11.00;92.20;;;10.39;76.43;99280.53;5047119;28;20436;-79
2023/04/24 09:20:25;;;;;;;4.25;2.30;;;11.10;92.40;;;10.37;76.01;99293.31;5040356;28;20041;-78
2023/04/24 09:22:55;;;;;;;6.28;2.15;;;11.10;92.00;;;10.44;75.95;99303.81;5038489;28;20125;-78
2023/04/24 09:25:31;;;;;;;3.72;2.00;;;11.10;91.90;;;10.52;75.55;99311.44;5040526;28;20441;-78
2023/04/24 09:28:03;;;;;;;6.88;2.75;;;11.20;91.60;;;10.57;75.62;99320.34;5046211;28;20103;-80
2023/04/24 09:30:30;;;;;;;;;;;11.20;91.70;;;10.59;75.27;99333.44;5047058;28;20452;-79
2023/04/24 09:33:11;;;;;;;6.90;4.50;;;11.30;91.50;;;10.54;74.87;99330.66;5039872;28;19933;-80
2023/04/24 09:35:41;;;;;;;;;;;11.20;91.00;;;10.49;75.36;99334.06;5038401;28;20791;-80
2023/04/24 09:38:09;;;;;;;8.20;4.93;;;11.20;91.40;;;10.39;74.80;99341.84;5054088;28;20397;-78
2023/04/24 09:40:37;;;;;;;12.35;5.70;;;11.10;91.00;;;10.27;74.69;99363.22;5038858;28;20040;-80
2023/04/24 09:43:04;;;;;;;11.73;5.45;;;11.00;90.90;;;10.18;74.77;99372.59;5046772;28;20155;-79
2023/04/24 09:45:37;;;;;;;9.43;5.32;;;10.90;91.00;;;10.16;74.94;99387.22;5041839;28;20088;-80
2023/04/24 09:48:06;;;;;;;10.23;4.63;;;10.80;90.90;;;10.07;74.57;99395.56;5047640;28;20585;-79
2023/04/24 09:50:34;;;;;;;7.47;4.63;;;10.80;90.80;;;10.07;74.51;99416.88;5045208;28;20045;-79
2023/04/24 09:53:07;;;;;;;10.30;3.75;;;10.80;90.80;;;10.01;72.79;99414.34;5062585;28;20533;-80
2023/04/24 09:55:34;;;;;;;8.05;3.65;;;10.70;89.50;;;9.96;74.00;99435.53;5042508;28;20572;-80
2023/04/24 09:58:05;;;;;;;5.85;3.60;;;10.60;90.50;;;10.01;74.31;99454.28;5057810;28;20506;-79
2023/04/24 10:00:34;;;;;;;8.23;3.92;;;10.70;90.80;;;10.03;73.72;99449.53;5050391;28;20044;-81
2023/04/24 10:03:03;;;;;;;6.45;3.72;;;10.70;90.40;;;10.06;74.04;99462.41;5047007;28;20048;-79
2023/04/24 10:05:32;;;;;;;6.03;3.90;;;10.70;90.60;;;10.11;74.07;99464.38;5044759;28;20072;-78
2023/04/24 10:08:04;;;;;;;7.43;4.40;;;10.80;90.60;;;10.11;73.78;99467.84;5047324;28;20052;-81
2023/04/24 10:10:32;;;;;;;8.13;4.43;;;10.80;90.40;;;10.13;73.80;99473.72;5049489;28;20064;-80
2023/04/24 10:13:01;;;;;;;9.85;5.20;;;10.80;90.40;;;10.21;74.01;99475.25;5042870;28;20155;-78
2023/04/24 10:15:29;;;;;;;11.30;5.43;;;10.80;90.40;;;10.19;73.76;99477.31;5048434;28;20120;-79
2023/04/24 10:17:59;;;;;;;11.13;5.80;;;10.90;90.50;;;10.22;74.42;99477.66;5043140;28;20063;-79
2023/04/24 10:20:30;;;;;;;12.40;6.07;;;10.90;90.90;;;10.26;74.58;99486.03;5040260;28;20069;-79
2023/04/24 10:22:59;;;;;;;9.95;6.10;;;10.90;91.00;;;10.29;74.57;99489.03;5047689;28;20049;-80